createdAt,value
2023-04-04T00:02:04.063Z,3.70
2023-04-04T00:04:31.150Z,3.70
2023-04-04T00:06:58.086Z,3.70
2023-04-04T00:09:25.086Z,3.70
2023-04-04T00:11:52.061Z,3.70
2023-04-04T00:14:19.438Z,3.70
2023-04-04T00:16:46.303Z,3.70
2023-04-04T00:19:18.107Z,3.60
2023-04-04T00:21:48.274Z,3.60
2023-04-04T00:24:15.182Z,3.60
2023-04-04T00:26:42.065Z,3.50
2023-04-04T00:29:08.955Z,3.60
2023-04-04T00:31:36.122Z,3.60
2023-04-04T00:34:03.122Z,3.60
2023-04-04T00:36:30.061Z,3.50
2023-04-04T00:38:57.039Z,3.50
2023-04-04T00:41:24.015Z,3.50
2023-04-04T00:43:51.115Z,3.50
2023-04-04T00:46:19.088Z,3.40
2023-04-04T00:48:46.684Z,3.40
2023-04-04T00:51:13.774Z,3.30
2023-04-04T00:53:44.004Z,3.30
2023-04-04T00:56:11.005Z,3.30
2023-04-04T00:58:38.371Z,3.30
2023-04-04T01:01:06.235Z,3.30
2023-04-04T01:03:34.091Z,3.30
2023-04-04T01:06:02.816Z,3.20
2023-04-04T01:08:30.558Z,3.20
2023-04-04T01:10:58.010Z,3.20
2023-04-04T01:13:26.017Z,3.20
2023-04-04T01:15:53.006Z,3.20
2023-04-04T01:18:22.762Z,3.20
2023-04-04T01:21:10.696Z,3.20
2023-04-04T01:24:01.620Z,3.20
2023-04-04T01:26:29.217Z,3.20
2023-04-04T01:28:57.242Z,3.10
2023-04-04T01:31:36.315Z,3.10
2023-04-04T01:34:12.301Z,3.10
2023-04-04T01:37:01.396Z,3.10
2023-04-04T01:39:35.699Z,3.10
2023-04-04T01:42:04.159Z,3.00
2023-04-04T01:44:31.285Z,3.10
2023-04-04T01:46:58.184Z,3.10
2023-04-04T01:49:25.317Z,3.00
2023-04-04T01:51:53.199Z,3.00
2023-04-04T01:54:20.240Z,3.00
2023-04-04T01:56:47.229Z,3.00
2023-04-04T01:59:14.319Z,2.90
2023-04-04T02:01:41.280Z,3.00
2023-04-04T02:04:11.291Z,2.90
2023-04-04T02:06:40.488Z,2.90
2023-04-04T02:09:07.674Z,2.90
2023-04-04T02:11:34.565Z,2.90
2023-04-04T02:14:01.566Z,2.90
2023-04-04T02:16:28.445Z,2.90
2023-04-04T02:18:55.623Z,2.90
2023-04-04T02:21:22.703Z,2.90
2023-04-04T02:23:49.594Z,2.90
2023-04-04T02:26:16.512Z,2.80
2023-04-04T02:28:43.477Z,2.80
2023-04-04T02:31:10.697Z,2.80
2023-04-04T02:33:37.896Z,2.80
2023-04-04T02:36:05.158Z,2.80
2023-04-04T02:38:32.108Z,2.80
2023-04-04T02:40:59.480Z,2.80
2023-04-04T02:43:26.537Z,2.80
2023-04-04T02:45:53.513Z,2.90
2023-04-04T02:48:20.563Z,2.80
2023-04-04T02:50:51.134Z,2.80
2023-04-04T02:53:18.046Z,2.80
2023-04-04T02:55:44.972Z,2.80
2023-04-04T02:58:11.912Z,2.80
2023-04-04T03:00:39.231Z,2.80
2023-04-04T03:03:06.704Z,2.80
2023-04-04T03:05:33.759Z,2.60
2023-04-04T03:08:01.112Z,2.60
2023-04-04T03:10:32.517Z,2.70
2023-04-04T03:12:59.822Z,2.70
2023-04-04T03:15:27.716Z,2.70
2023-04-04T03:17:54.703Z,2.70
2023-04-04T03:20:22.102Z,2.60
2023-04-04T03:22:49.964Z,2.60
2023-04-04T03:25:17.426Z,2.60
2023-04-04T03:27:44.873Z,2.60
2023-04-04T03:30:12.317Z,2.60
2023-04-04T03:32:39.780Z,2.60
2023-04-04T03:35:08.204Z,2.60
2023-04-04T03:37:36.660Z,2.60
2023-04-04T03:40:05.131Z,2.60
2023-04-04T03:42:35.571Z,2.60
2023-04-04T03:45:04.017Z,2.60
2023-04-04T03:47:31.481Z,2.60
2023-04-04T03:49:58.884Z,2.60
2023-04-04T03:52:26.333Z,2.60
2023-04-04T03:54:53.762Z,2.60
2023-04-04T03:57:21.216Z,2.60
2023-04-04T03:59:48.661Z,2.60
2023-04-04T04:02:16.136Z,2.50
2023-04-04T04:04:43.538Z,2.50
2023-04-04T04:07:10.940Z,2.50
2023-04-04T04:09:39.380Z,2.50
2023-04-04T04:12:06.819Z,2.50
2023-04-04T04:14:34.251Z,2.50
2023-04-04T04:17:01.693Z,2.40
2023-04-04T04:19:29.128Z,2.50
2023-04-04T04:21:56.574Z,2.50
2023-04-04T04:24:24.012Z,2.50
2023-04-04T04:26:51.443Z,2.50
2023-04-04T04:29:18.900Z,2.50
2023-04-04T04:31:46.326Z,2.50
2023-04-04T04:34:14.772Z,2.50
2023-04-04T04:36:42.239Z,2.50
2023-04-04T04:39:09.679Z,2.50
2023-04-04T04:41:37.110Z,2.60
2023-04-04T04:44:04.541Z,2.60
2023-04-04T04:46:32.121Z,2.60
2023-04-04T04:48:59.523Z,2.70
2023-04-04T04:51:26.867Z,2.70
2023-04-04T04:54:14.366Z,2.70
2023-04-04T04:56:43.488Z,2.70
2023-04-04T04:59:14.903Z,2.80
2023-04-04T05:01:48.761Z,2.80
2023-04-04T05:04:18.186Z,2.90
2023-04-04T05:06:45.601Z,3.00
2023-04-04T05:09:13.037Z,3.00
2023-04-04T05:11:40.513Z,3.00
2023-04-04T05:14:07.924Z,3.10
2023-04-04T05:16:35.386Z,3.10
2023-04-04T05:19:02.795Z,3.20
2023-04-04T05:21:30.215Z,3.30
2023-04-04T05:23:57.657Z,3.40
2023-04-04T05:26:26.083Z,3.50
2023-04-04T05:28:53.523Z,3.70
2023-04-04T05:31:20.990Z,3.90
2023-04-04T05:33:48.378Z,4.10
2023-04-04T05:36:16.909Z,4.40
2023-04-04T05:38:44.243Z,4.50
2023-04-04T05:41:11.672Z,4.80
2023-04-04T05:43:39.120Z,4.90
2023-04-04T05:46:06.558Z,5.10
2023-04-04T05:48:33.991Z,5.30
2023-04-04T05:51:01.420Z,5.40
2023-04-04T05:53:28.866Z,5.50
2023-04-04T05:55:56.309Z,5.70
2023-04-04T05:58:23.750Z,5.80
2023-04-04T06:00:51.172Z,5.80
2023-04-04T06:03:21.191Z,5.90
2023-04-04T06:05:53.121Z,6.00
2023-04-04T06:08:20.521Z,6.10
2023-04-04T06:10:47.978Z,6.30
2023-04-04T06:13:15.423Z,6.70
2023-04-04T06:15:42.894Z,7.30
2023-04-04T06:18:10.330Z,8.20
2023-04-04T06:20:37.899Z,8.60
2023-04-04T06:23:05.165Z,9.00
2023-04-04T06:25:32.611Z,8.90
2023-04-04T06:28:00.057Z,9.10
2023-04-04T06:30:27.486Z,9.00
2023-04-04T06:32:54.987Z,8.90
2023-04-04T06:35:23.345Z,8.80
2023-04-04T06:37:56.820Z,8.80
2023-04-04T06:40:24.253Z,8.70
2023-04-04T06:42:52.702Z,8.60
2023-04-04T06:45:20.117Z,8.50
2023-04-04T06:47:47.576Z,8.40
2023-04-04T06:50:14.996Z,8.00
2023-04-04T06:52:42.423Z,7.90
2023-04-04T06:55:09.866Z,7.90
2023-04-04T06:57:39.358Z,7.80
2023-04-04T07:00:07.777Z,7.60
2023-04-04T07:02:35.319Z,7.50
2023-04-04T07:05:04.607Z,7.30
2023-04-04T07:07:32.083Z,7.20
2023-04-04T07:09:59.477Z,7.00
2023-04-04T07:12:26.909Z,7.00
2023-04-04T07:14:54.343Z,6.90
2023-04-04T07:17:25.100Z,6.90
2023-04-04T07:19:53.245Z,6.90
2023-04-04T07:22:20.683Z,6.90
2023-04-04T07:24:49.114Z,6.90
2023-04-04T07:27:16.556Z,7.40
2023-04-04T07:29:44.005Z,8.10
2023-04-04T07:32:11.538Z,8.70
2023-04-04T07:34:38.876Z,9.00
2023-04-04T07:37:06.303Z,9.10
2023-04-04T07:39:33.742Z,9.00
2023-04-04T07:42:01.167Z,9.10
2023-04-04T07:44:28.611Z,9.20
2023-04-04T07:47:08.723Z,9.00
2023-04-04T07:49:37.505Z,8.80
2023-04-04T07:52:04.928Z,8.50
2023-04-04T07:54:32.360Z,8.70
2023-04-04T07:56:59.788Z,8.80
2023-04-04T07:59:27.343Z,8.90
2023-04-04T08:01:54.653Z,8.80
2023-04-04T08:04:22.123Z,8.60
2023-04-04T08:06:49.505Z,8.40
2023-04-04T08:09:16.955Z,8.40
2023-04-04T08:11:44.378Z,8.60
2023-04-04T08:14:12.829Z,9.10
2023-04-04T08:16:40.259Z,9.30
2023-04-04T08:19:08.713Z,9.60
2023-04-04T08:21:36.162Z,9.30
2023-04-04T08:24:03.594Z,9.30
2023-04-04T08:26:31.077Z,9.30
2023-04-04T08:28:58.538Z,9.30
2023-04-04T08:31:25.937Z,9.20
2023-04-04T08:33:53.364Z,9.40
2023-04-04T08:36:20.737Z,9.30
2023-04-04T08:38:48.182Z,9.10
2023-04-04T08:41:18.617Z,8.80
2023-04-04T08:43:55.084Z,9.20
2023-04-04T08:46:26.277Z,9.60
2023-04-04T08:48:56.004Z,10.00
2023-04-04T08:51:27.426Z,10.20
2023-04-04T08:53:56.855Z,10.40
2023-04-04T08:56:25.275Z,10.50
2023-04-04T08:58:52.778Z,10.30
2023-04-04T09:01:20.150Z,10.00
2023-04-04T09:03:48.563Z,9.80
2023-04-04T09:06:17.020Z,10.00
2023-04-04T09:08:45.418Z,10.10
2023-04-04T09:11:16.862Z,10.10
2023-04-04T09:13:46.311Z,9.90
2023-04-04T09:16:13.796Z,9.50
2023-04-04T09:18:42.194Z,9.50
2023-04-04T09:21:11.653Z,9.90
2023-04-04T09:23:39.323Z,10.20
2023-04-04T09:26:07.527Z,10.00
2023-04-04T09:28:35.961Z,9.70
2023-04-04T09:31:07.196Z,9.30
2023-04-04T09:33:35.859Z,9.60
2023-04-04T09:36:07.224Z,9.80
2023-04-04T09:38:38.762Z,9.50
2023-04-04T09:41:12.849Z,9.70
2023-04-04T09:43:40.881Z,9.90
2023-04-04T09:46:09.066Z,10.00
2023-04-04T09:48:38.507Z,9.90
2023-04-04T09:51:07.943Z,10.00
2023-04-04T09:53:37.467Z,10.00
2023-04-04T09:56:06.935Z,10.20
2023-04-04T09:58:38.033Z,10.30
2023-04-04T10:01:10.734Z,10.50
2023-04-04T10:03:40.094Z,10.70
2023-04-04T10:06:08.568Z,10.50
2023-04-04T10:08:39.917Z,10.50
2023-04-04T10:11:11.230Z,10.40
2023-04-04T10:13:44.896Z,10.60
2023-04-04T10:16:12.613Z,10.90
2023-04-04T10:18:40.779Z,11.10
2023-04-04T10:21:15.805Z,11.20
2023-04-04T10:23:46.798Z,11.40
2023-04-04T10:26:16.094Z,11.20
2023-04-04T10:28:44.523Z,11.10
2023-04-04T10:31:18.748Z,11.20
2023-04-04T10:33:55.435Z,11.30
2023-04-04T10:36:30.887Z,11.50
2023-04-04T10:39:07.346Z,11.80
2023-04-04T10:41:36.792Z,11.50
2023-04-04T10:44:32.327Z,10.90
2023-04-04T10:47:08.750Z,10.90
2023-04-04T10:49:38.194Z,10.60
2023-04-04T10:52:06.604Z,10.60
2023-04-04T10:54:35.036Z,10.40
2023-04-04T10:57:04.460Z,10.60
2023-04-04T10:59:31.926Z,10.60
2023-04-04T11:02:04.329Z,10.40
2023-04-04T11:04:36.877Z,10.60
2023-04-04T11:07:10.235Z,10.60
2023-04-04T11:09:51.700Z,10.00
2023-04-04T11:12:30.592Z,9.80
2023-04-04T11:15:04.575Z,9.80
2023-04-04T11:17:50.239Z,9.90
2023-04-04T11:20:21.142Z,9.80
2023-04-04T11:22:50.948Z,9.80
2023-04-04T11:25:33.439Z,10.10
2023-04-04T11:28:06.886Z,10.20
2023-04-04T11:30:44.340Z,10.40
2023-04-04T11:33:13.876Z,10.60
2023-04-04T11:35:47.252Z,10.90
2023-04-04T11:38:16.674Z,11.10
2023-04-04T11:40:55.121Z,11.20
2023-04-04T11:43:23.536Z,11.10
2023-04-04T11:45:51.993Z,10.50
2023-04-04T11:48:21.392Z,10.50
2023-04-04T11:50:52.563Z,10.30
2023-04-04T11:53:21.260Z,10.20
2023-04-04T11:55:50.719Z,10.10
2023-04-04T11:58:19.148Z,10.20
2023-04-04T12:00:47.560Z,10.30
2023-04-04T12:03:18.034Z,10.30
2023-04-04T12:05:47.483Z,10.20
2023-04-04T12:08:15.870Z,10.30
2023-04-04T12:10:45.284Z,10.40
2023-04-04T12:13:13.703Z,10.50
2023-04-04T12:15:44.180Z,10.60
2023-04-04T12:18:21.604Z,10.70
2023-04-04T12:20:52.217Z,10.50
2023-04-04T12:23:20.462Z,10.60
2023-04-04T12:25:53.893Z,10.60
2023-04-04T12:28:22.337Z,10.60
2023-04-04T12:30:50.116Z,10.40
2023-04-04T12:33:18.191Z,10.50
2023-04-04T12:35:55.736Z,10.70
2023-04-04T12:38:23.066Z,10.40
2023-04-04T12:40:52.513Z,10.30
2023-04-04T12:43:20.976Z,10.50
2023-04-04T12:45:51.329Z,10.70
2023-04-04T12:48:18.779Z,10.60
2023-04-04T12:50:53.089Z,10.40
2023-04-04T12:53:29.538Z,10.40
2023-04-04T12:56:03.181Z,10.10
2023-04-04T12:58:31.567Z,9.90
2023-04-04T13:01:02.081Z,10.10
2023-04-04T13:03:31.422Z,10.00
2023-04-04T13:06:00.964Z,10.20
2023-04-04T13:08:28.288Z,10.40
2023-04-04T13:11:06.772Z,10.50
2023-04-04T13:13:43.824Z,10.60
2023-04-04T13:16:12.670Z,10.60
2023-04-04T13:18:45.112Z,10.50
2023-04-04T13:21:13.578Z,10.50
2023-04-04T13:23:42.049Z,10.50
2023-04-04T13:26:11.457Z,10.40
2023-04-04T13:28:38.896Z,10.50
2023-04-04T13:31:09.271Z,10.60
2023-04-04T13:33:36.677Z,10.70
2023-04-04T13:36:04.104Z,10.90
2023-04-04T13:38:32.523Z,11.00
2023-04-04T13:41:00.957Z,11.10
2023-04-04T13:43:29.375Z,10.90
2023-04-04T13:45:56.866Z,10.80
2023-04-04T13:48:24.245Z,10.70
2023-04-04T13:50:51.692Z,10.60
2023-04-04T13:53:20.127Z,10.70
2023-04-04T13:56:12.994Z,10.70
2023-04-04T13:58:35.037Z,10.70
2023-04-04T14:01:07.504Z,10.80
2023-04-04T14:03:35.910Z,10.50
2023-04-04T14:06:10.508Z,10.50
2023-04-04T14:08:38.793Z,10.60
2023-04-04T14:11:06.232Z,10.40
2023-04-04T14:13:43.657Z,10.10
2023-04-04T14:16:21.108Z,10.00
2023-04-04T14:18:49.568Z,10.20
2023-04-04T14:21:16.994Z,10.30
2023-04-04T14:23:44.400Z,10.40
2023-04-04T14:26:11.825Z,10.60
2023-04-04T14:28:39.251Z,10.60
2023-04-04T14:31:07.730Z,10.40
2023-04-04T14:33:35.093Z,10.50
2023-04-04T14:36:02.509Z,10.30
2023-04-04T14:38:30.925Z,10.20
2023-04-04T14:40:59.998Z,10.20
2023-04-04T14:43:37.747Z,10.00
2023-04-04T14:46:16.298Z,9.80
2023-04-04T14:48:43.688Z,9.70
2023-04-04T14:51:10.820Z,9.60
2023-04-04T14:53:38.556Z,9.60
2023-04-04T14:56:05.971Z,9.70
2023-04-04T14:58:33.420Z,9.80
2023-04-04T15:01:01.844Z,9.80
2023-04-04T15:03:29.263Z,9.70
2023-04-04T15:05:57.693Z,9.60
2023-04-04T15:08:25.142Z,9.60
2023-04-04T15:10:52.639Z,9.40
2023-04-04T15:13:19.958Z,9.40
2023-04-04T15:15:47.369Z,9.30
2023-04-04T15:18:15.811Z,9.30
2023-04-04T15:20:43.414Z,9.30
2023-04-04T15:23:11.665Z,9.30
2023-04-04T15:25:39.081Z,9.20
2023-04-04T15:28:06.546Z,9.20
2023-04-04T15:30:33.961Z,9.20
2023-04-04T15:33:01.382Z,9.20
2023-04-04T15:35:28.792Z,9.10
2023-04-04T15:37:56.217Z,9.00
2023-04-04T15:40:23.656Z,8.90
2023-04-04T15:42:52.065Z,8.90
2023-04-04T15:45:19.542Z,8.90
2023-04-04T15:47:46.971Z,8.80
2023-04-04T15:50:14.339Z,8.80
2023-04-04T15:52:42.789Z,8.80
2023-04-04T15:55:13.202Z,8.80
2023-04-04T15:57:41.637Z,8.70
2023-04-04T16:00:10.062Z,8.60
2023-04-04T16:02:38.516Z,8.60
2023-04-04T16:05:06.900Z,8.60
2023-04-04T16:07:34.333Z,8.50
2023-04-04T16:10:01.757Z,8.40
2023-04-04T16:12:29.203Z,8.40
2023-04-04T16:14:56.607Z,8.30
2023-04-04T16:17:26.128Z,8.30
2023-04-04T16:19:53.465Z,8.20
2023-04-04T16:22:20.875Z,8.20
2023-04-04T16:24:48.386Z,8.10
2023-04-04T16:27:16.712Z,8.10
2023-04-04T16:29:44.138Z,8.10
2023-04-04T16:32:11.565Z,8.00
2023-04-04T16:34:39.047Z,7.90
2023-04-04T16:37:06.429Z,7.80
2023-04-04T16:39:33.847Z,7.80
2023-04-04T16:42:01.270Z,7.70
2023-04-04T16:44:28.711Z,7.70
2023-04-04T16:46:57.253Z,7.60
2023-04-04T16:49:24.570Z,7.60
2023-04-04T16:51:51.973Z,7.50
2023-04-04T16:54:19.395Z,7.40
2023-04-04T16:56:47.828Z,7.40
2023-04-04T16:59:17.156Z,7.30
2023-04-04T17:01:44.696Z,7.30
2023-04-04T17:04:12.146Z,7.20
2023-04-04T17:06:39.535Z,7.10
2023-04-04T17:09:06.993Z,7.00
2023-04-04T17:11:34.420Z,7.00
2023-04-04T17:14:02.878Z,6.90
2023-04-04T17:16:30.346Z,6.90
2023-04-04T17:18:57.745Z,6.80
2023-04-04T17:21:25.197Z,6.80
2023-04-04T17:23:52.611Z,6.70
2023-04-04T17:26:20.059Z,6.60
2023-04-04T17:28:48.564Z,6.60
2023-04-04T17:31:16.621Z,6.50
2023-04-04T17:33:44.368Z,6.50
2023-04-04T17:36:12.730Z,6.40
2023-04-04T17:38:41.135Z,6.40
2023-04-04T17:41:09.484Z,6.30
2023-04-04T17:43:37.001Z,6.30
2023-04-04T17:46:08.579Z,6.20
2023-04-04T17:48:37.935Z,6.20
2023-04-04T17:51:08.234Z,6.10
2023-04-04T17:53:35.773Z,6.10
2023-04-04T17:56:03.213Z,6.00
2023-04-04T17:58:30.628Z,6.00
2023-04-04T18:01:01.811Z,6.00
2023-04-04T18:03:29.556Z,5.90
2023-04-04T18:05:58.067Z,5.90
2023-04-04T18:08:26.384Z,5.90
2023-04-04T18:10:53.538Z,5.80
2023-04-04T18:13:21.220Z,5.80
2023-04-04T18:15:48.700Z,5.80
2023-04-04T18:18:16.054Z,5.70
2023-04-04T18:20:44.710Z,5.70
2023-04-04T18:23:12.229Z,5.60
2023-04-04T18:25:40.408Z,5.60
2023-04-04T18:28:08.021Z,5.50
2023-04-04T18:30:37.414Z,5.50
2023-04-04T18:33:05.749Z,5.40
2023-04-04T18:35:33.171Z,5.40
2023-04-04T18:38:00.213Z,5.30
2023-04-04T18:40:28.087Z,5.20
2023-04-04T18:42:58.847Z,5.10
2023-04-04T18:45:33.724Z,5.10
2023-04-04T18:48:06.409Z,5.00
2023-04-04T18:50:33.801Z,5.00
2023-04-04T18:53:01.195Z,5.00
2023-04-04T18:55:28.653Z,4.90
2023-04-04T18:57:56.576Z,4.90
2023-04-04T19:00:26.706Z,4.90
2023-04-04T19:02:55.949Z,4.90
2023-04-04T19:05:25.849Z,4.90
2023-04-04T19:07:57.299Z,4.80
2023-04-04T19:10:25.462Z,4.90
2023-04-04T19:12:57.113Z,4.80
2023-04-04T19:15:25.294Z,4.80
2023-04-04T19:17:52.635Z,4.70
2023-04-04T19:20:22.188Z,4.60
2023-04-04T19:22:50.167Z,4.60
2023-04-04T19:25:19.049Z,4.70
2023-04-04T19:27:47.633Z,4.70
2023-04-04T19:30:37.800Z,4.70
2023-04-04T19:33:11.378Z,4.60
2023-04-04T19:36:10.038Z,4.50
2023-04-04T19:38:40.476Z,4.50
2023-04-04T19:41:24.113Z,4.50
2023-04-04T19:43:52.181Z,4.50
2023-04-04T19:46:29.627Z,4.60
2023-04-04T19:52:11.375Z,4.50
2023-04-04T19:54:45.288Z,4.50
2023-04-04T19:57:22.643Z,4.60
2023-04-04T20:00:14.278Z,4.60
2023-04-04T20:02:51.635Z,4.60
2023-04-04T20:05:40.372Z,4.60
2023-04-04T20:08:07.892Z,4.50
2023-04-04T20:10:42.039Z,4.40
2023-04-04T20:13:10.210Z,4.50
2023-04-04T20:16:00.955Z,4.50
2023-04-04T20:18:33.562Z,4.50
2023-04-04T20:21:08.073Z,4.50
2023-04-04T20:23:57.744Z,4.40
2023-04-04T20:26:41.342Z,4.50
2023-04-04T20:29:16.712Z,4.50
2023-04-04T20:31:43.706Z,4.50
2023-04-04T20:34:30.033Z,4.50
2023-04-04T20:36:57.538Z,4.50
2023-04-04T20:39:42.201Z,4.50
2023-04-04T20:42:19.444Z,4.40
2023-04-04T20:44:47.122Z,4.40
2023-04-04T20:47:42.852Z,4.30
2023-04-04T20:50:19.135Z,4.30
2023-04-04T20:52:53.392Z,4.30
2023-04-04T20:55:22.547Z,4.30
2023-04-04T20:57:50.874Z,4.20
2023-04-04T21:00:30.250Z,4.20
2023-04-04T21:02:59.612Z,4.10
2023-04-04T21:05:27.866Z,4.10
2023-04-04T21:07:54.919Z,4.20
2023-04-04T21:10:44.909Z,4.20
2023-04-04T21:13:11.815Z,4.10
2023-04-04T21:15:39.396Z,4.10
2023-04-04T21:18:11.560Z,4.10
2023-04-04T21:20:46.981Z,4.10
2023-04-04T21:23:28.626Z,4.00
2023-04-04T21:26:17.093Z,4.00
2023-04-04T21:28:45.982Z,3.90
2023-04-04T21:31:15.199Z,3.90
2023-04-04T21:33:46.745Z,3.80
2023-04-04T21:36:29.119Z,3.80
2023-04-04T21:38:59.259Z,3.80
2023-04-04T21:41:31.133Z,3.70
2023-04-04T21:44:00.592Z,3.70
2023-04-04T21:46:30.136Z,3.70
2023-04-04T21:48:57.190Z,3.70
2023-04-04T21:51:24.239Z,3.70
2023-04-04T21:53:51.325Z,3.60
2023-04-04T21:56:18.994Z,3.60
2023-04-04T21:58:46.075Z,3.60
2023-04-04T22:01:13.241Z,3.60
2023-04-04T22:03:40.807Z,3.50
2023-04-04T22:06:08.120Z,3.60
2023-04-04T22:08:35.018Z,3.60
2023-04-04T22:11:03.210Z,3.60
2023-04-04T22:13:33.564Z,3.60
2023-04-04T22:16:02.315Z,3.60
2023-04-04T22:18:33.339Z,3.50
2023-04-04T22:21:05.173Z,3.50
2023-04-04T22:23:35.653Z,3.50
2023-04-04T22:26:07.002Z,3.50
2023-04-04T22:28:35.889Z,3.40
2023-04-04T22:31:03.151Z,3.40
2023-04-04T22:33:30.446Z,3.50
2023-04-04T22:35:59.230Z,3.50
2023-04-04T22:38:26.726Z,3.50
2023-04-04T22:40:54.304Z,3.50
2023-04-04T22:43:22.036Z,3.40
2023-04-04T22:45:49.330Z,3.40
2023-04-04T22:48:17.265Z,3.40
2023-04-04T22:50:45.260Z,3.30
2023-04-04T22:53:13.064Z,3.20
2023-04-04T22:55:40.526Z,3.30
2023-04-04T22:58:08.327Z,3.30
2023-04-04T23:00:36.071Z,3.40
2023-04-04T23:03:04.186Z,3.40
2023-04-04T23:05:31.230Z,3.40
2023-04-04T23:08:03.012Z,3.40
2023-04-04T23:10:30.633Z,3.40
2023-04-04T23:12:57.562Z,3.40
2023-04-04T23:15:24.462Z,3.40
2023-04-04T23:17:51.532Z,3.30
2023-04-04T23:20:18.549Z,3.30
2023-04-04T23:22:45.882Z,3.20
2023-04-04T23:25:12.788Z,3.20
2023-04-04T23:27:40.273Z,3.20
2023-04-04T23:30:07.914Z,3.20
2023-04-04T23:32:34.855Z,3.20
2023-04-04T23:35:01.908Z,3.20
2023-04-04T23:37:29.033Z,3.20
2023-04-04T23:39:56.002Z,3.20
2023-04-04T23:42:23.044Z,3.20
2023-04-04T23:44:50.030Z,3.10
2023-04-04T23:47:17.015Z,3.20
2023-04-04T23:49:43.918Z,3.20
2023-04-04T23:52:10.895Z,3.10
2023-04-04T23:54:37.870Z,3.00
2023-04-04T23:57:04.788Z,3.00
2023-04-04T23:59:31.786Z,3.00
